Time;durP1;ratioP1;P1;durP2;ratioP2;P2;SDS_P1;SDS_P2;PMS_P1;PMS_P2;Temp;Humidity;BMP_temperature;BMP_pressure;BME280_temperature;BME280_humidity;BME280_pressure;Samples;Min_cycle;Max_cycle;Signal;HPM_P1;HPM_P2
2023/02/14 00:00:53;;;;;;;8.40;4.40;;;;;;;3.50;83.84;100028.70;106049;1264;60424;-73
2023/02/14 00:03:19;;;;;;;5.10;4.00;;;;;;;3.45;83.87;100024.21;105868;1264;60610;-75
2023/02/14 00:05:46;;;;;;;6.40;4.40;;;;;;;3.42;83.98;100017.75;106452;1264;73323;-76
2023/02/14 00:08:13;;;;;;;5.20;3.90;;;;;;;3.48;83.83;100020.23;105395;1264;70515;-75
2023/02/14 00:10:41;;;;;;;8.20;3.60;;;;;;;3.53;83.81;100014.30;105346;1268;71722;-73
2023/02/14 00:13:07;;;;;;;4.30;3.40;;;;;;;3.50;83.67;100013.14;105127;1264;60466;-75
2023/02/14 00:15:35;;;;;;;4.90;3.70;;;;;;;3.44;83.88;100001.52;105179;1264;60736;-75
2023/02/14 00:18:02;;;;;;;6.50;4.00;;;;;;;3.39;84.06;100003.79;105140;1264;74053;-76
2023/02/14 00:20:29;;;;;;;6.10;3.50;;;;;;;3.39;83.78;99993.99;105226;1264;71146;-76
2023/02/14 00:22:55;;;;;;;5.50;3.80;;;;;;;3.47;83.83;100000.41;105170;1264;73126;-77
2023/02/14 00:25:22;;;;;;;5.90;3.80;;;;;;;3.47;83.90;100002.88;105192;1270;60530;-77
2023/02/14 00:27:49;;;;;;;7.90;3.70;;;;;;;3.41;84.05;100005.77;105202;1264;61214;-76
2023/02/14 00:30:15;;;;;;;6.00;3.80;;;;;;;3.35;84.05;99991.85;105137;1264;73999;-77
2023/02/14 00:32:42;;;;;;;5.30;3.80;;;;;;;3.31;83.97;99991.80;105105;1264;70688;-76
2023/02/14 00:35:09;;;;;;;5.00;3.30;;;;;;;3.37;83.95;99993.27;104982;1266;71801;-77
2023/02/14 00:37:40;;;;;;;5.80;3.60;;;;;;;3.43;83.82;99988.96;105116;1264;60446;-77
2023/02/14 00:40:07;;;;;;;4.70;3.70;;;;;;;3.41;83.82;99985.30;104992;1264;60427;-77
2023/02/14 00:42:34;;;;;;;5.80;4.00;;;;;;;3.36;83.96;99976.31;105245;1267;73908;-78
2023/02/14 00:45:01;;;;;;;7.40;4.10;;;;;;;3.34;83.89;99974.34;105959;1270;69540;-75
2023/02/14 00:47:28;;;;;;;4.20;3.50;;;;;;;3.41;84.01;99978.27;106044;1264;71309;-73
2023/02/14 00:50:01;;;;;;;4.60;3.40;;;;;;;3.48;83.60;99972.84;106862;1264;60355;-73
2023/02/14 00:52:29;;;;;;;3.40;3.00;;;;;;;3.47;83.73;99982.71;106243;1265;60362;-76
2023/02/14 00:54:58;;;;;;;4.80;3.40;;;;;;;3.43;83.73;99973.18;105276;1264;74399;-81
2023/02/14 00:57:25;;;;;;;6.00;3.70;;;;;;;3.40;83.46;99964.34;105218;1264;69452;-75
2023/02/14 00:59:52;;;;;;;4.00;3.10;;;;;;;3.43;83.48;99971.12;105331;1270;72723;-74
2023/02/14 01:02:20;;;;;;;4.20;3.50;;;;;;;3.47;83.46;99978.46;105143;1264;60834;-74
2023/02/14 01:04:50;;;;;;;5.20;4.10;;;;;;;3.44;83.53;99979.41;105288;1264;60552;-76
2023/02/14 01:07:16;;;;;;;5.90;3.70;;;;;;;3.38;83.57;99989.17;105360;1265;73104;-72
2023/02/14 01:09:43;;;;;;;6.90;3.90;;;;;;;3.32;83.53;99985.92;105539;1265;69612;-75
2023/02/14 01:12:10;;;;;;;6.40;3.70;;;;;;;3.30;83.75;99981.73;106300;1269;73920;-71
2023/02/14 01:14:37;;;;;;;4.20;3.10;;;;;;;3.39;83.57;99979.83;105929;1264;60408;-72
2023/02/14 01:17:07;;;;;;;6.10;3.50;;;;;;;3.48;83.49;99964.77;105349;1264;60477;-73
2023/02/14 01:19:35;;;;;;;6.20;3.60;;;;;;;3.48;83.32;99969.99;105246;1264;75159;-74
2023/02/14 01:22:02;;;;;;;5.90;3.90;;;;;;;3.48;83.50;99971.43;105152;1264;71177;-73
2023/02/14 01:24:29;;;;;;;7.60;4.00;;;;;;;3.47;83.44;99966.25;105078;1264;72842;-75
2023/02/14 01:26:55;;;;;;;6.40;3.50;;;;;;;3.45;83.34;99964.30;105087;1265;60680;-77
2023/02/14 01:29:22;;;;;;;7.20;3.30;;;;;;;3.45;83.28;99960.65;105013;1264;60462;-75
2023/02/14 01:31:51;;;;;;;5.20;2.80;;;;;;;3.50;83.04;99948.29;106371;1264;72979;-75
2023/02/14 01:34:18;;;;;;;3.90;3.20;;;;;;;3.53;83.08;99942.80;108483;1265;70372;-75
2023/02/14 01:36:55;;;;;;;6.20;3.70;;;;;;;3.49;83.03;99936.86;108519;1263;344633;-74
2023/02/14 01:42:12;;;;;;;4.70;3.60;;;;;;;3.45;83.39;99933.30;106787;1285;599690;-73
2023/02/14 01:44:39;;;;;;;5.80;3.70;;;;;;;3.54;83.33;99926.43;108801;1263;56988;-74
2023/02/14 01:47:07;;;;;;;4.90;3.30;;;;;;;3.67;82.91;99917.89;107299;1264;59040;-74
2023/02/14 01:49:37;;;;;;;4.60;3.50;;;;;;;3.71;82.78;99919.38;108656;1263;70605;-74
2023/02/14 01:52:09;;;;;;;4.30;3.10;;;;;;;3.70;82.66;99909.81;108139;1268;70710;-74
2023/02/14 01:54:42;;;;;;;5.30;3.90;;;;;;;3.66;82.46;99902.59;108320;1263;408205;-72
2023/02/14 01:57:11;;;;;;;5.70;4.50;;;;;;;3.62;82.46;99898.70;108836;1262;59299;-72
2023/02/14 01:59:45;;;;;;;4.80;3.60;;;;;;;3.60;82.45;99890.84;109298;1253;57933;-73
2023/02/14 02:02:12;;;;;;;5.50;3.30;;;;;;;3.66;82.29;99887.38;109450;1253;70381;-72
2023/02/14 02:04:43;;;;;;;5.20;3.30;;;;;;;3.71;82.07;99882.09;109497;1253;69402;-74
2023/02/14 02:07:19;;;;;;;5.30;3.90;;;;;;;3.68;82.10;99883.55;109556;1253;70238;-72
2023/02/14 02:09:54;;;;;;;5.80;3.90;;;;;;;3.62;82.14;99881.00;109212;1255;59553;-72
2023/02/14 02:12:24;;;;;;;5.20;3.90;;;;;;;3.63;82.35;99883.20;109523;1253;58661;-73
2023/02/14 02:14:52;;;;;;;4.30;3.20;;;;;;;3.65;82.04;99882.55;109388;1253;73047;-73
2023/02/14 02:18:00;;;;;;;6.80;4.00;;;;;;;3.75;81.93;99888.45;109490;1253;70033;-74
2023/02/14 02:21:00;;;;;;;6.00;3.30;;;;;;;3.73;81.54;99883.45;108927;1251;71934;-81
2023/02/14 02:23:55;;;;;;;4.30;3.50;;;;;;;3.67;81.78;99881.71;109306;1253;58556;-73
2023/02/14 02:26:48;;;;;;;7.10;3.70;;;;;;;3.61;82.04;99879.91;108977;1252;59754;-73
2023/02/14 02:29:17;;;;;;;5.60;3.30;;;;;;;3.61;81.83;99877.29;109101;1253;73070;-68
2023/02/14 02:32:14;;;;;;;3.60;2.70;;;;;;;3.69;81.66;99863.61;107557;1254;69291;-69
2023/02/14 02:35:22;;;;;;;4.50;3.30;;;;;;;3.66;81.57;99863.70;107357;1253;71160;-68
2023/02/14 02:37:57;;;;;;;5.70;3.60;;;;;;;3.59;81.59;99866.56;108323;1253;58705;-69
2023/02/14 02:41:02;;;;;;;6.50;3.80;;;;;;;3.51;81.81;99860.34;108452;1254;60277;-70
2023/02/14 02:43:37;;;;;;;3.50;2.90;;;;;;;3.47;81.90;99858.05;107986;1256;72039;-68
2023/02/14 02:46:47;;;;;;;4.10;3.10;;;;;;;3.55;81.86;99862.64;105596;1253;71341;-70
2023/02/14 02:53:04;;;;;;;5.70;3.60;;;;;;;3.51;82.13;99866.45;105784;1254;60449;-69
2023/02/14 02:58:19;;;;;;;7.80;4.00;;;;;;;3.46;82.27;99881.59;105777;1251;72098;-67
2023/02/14 03:00:46;;;;;;;6.40;3.90;;;;;;;3.46;82.05;99885.23;105702;1250;70944;-69
2023/02/14 03:05:59;;;;;;;8.00;4.70;;;;;;;3.50;82.24;99892.98;105647;1254;59659;-68
2023/02/14 03:08:26;;;;;;;7.00;3.70;;;;;;;3.43;82.29;99905.59;105577;1250;60416;-66
2023/02/14 03:10:53;;;;;;;8.60;3.80;;;;;;;3.35;82.68;99913.37;105623;1255;74111;-67
2023/02/14 03:13:57;;;;;;;4.70;3.30;;;;;;;3.30;82.69;99912.02;105462;1251;69482;-65
2023/02/14 03:17:06;;;;;;;5.50;3.70;;;;;;;3.37;82.67;99912.73;105674;1254;73739;-68
2023/02/14 03:22:57;;;;;;;6.80;3.70;;;;;;;3.28;83.19;99925.63;105679;1251;59717;-69
2023/02/14 03:25:30;;;;;;;4.80;4.10;;;;;;;3.22;83.57;99921.92;105096;1258;72188;-70
2023/02/14 03:28:00;;;;;;;4.70;3.70;;;;;;;3.22;84.09;99927.91;105676;1256;71480;-70
2023/02/14 03:30:35;;;;;;;5.10;2.90;;;;;;;3.28;84.41;99926.89;105609;1250;71716;-71
2023/02/14 03:33:12;;;;;;;6.00;3.80;;;;;;;3.22;85.04;99939.05;105607;1251;60260;-70
2023/02/14 03:35:52;;;;;;;7.30;4.30;;;;;;;3.11;85.25;99944.27;106043;1250;61032;-70
2023/02/14 03:38:35;;;;;;;4.50;3.40;;;;;;;3.03;85.83;99938.73;105864;1256;74250;-68
2023/02/14 03:41:04;;;;;;;7.80;3.80;;;;;;;3.08;86.09;99941.84;105354;1253;70498;-70
2023/02/14 03:43:37;;;;;;;5.20;3.80;;;;;;;3.13;86.32;99941.69;105452;1253;73586;-64
2023/02/14 03:46:27;;;;;;;4.00;2.80;;;;;;;3.10;86.72;99944.87;105783;1254;60657;-66
2023/02/14 03:48:54;;;;;;;4.70;3.60;;;;;;;3.03;87.03;99945.08;105606;1251;61477;-66
2023/02/14 03:51:21;;;;;;;5.40;4.10;;;;;;;2.94;87.33;99943.45;105554;1250;74923;-66
2023/02/14 03:53:51;;;;;;;7.50;3.30;;;;;;;2.95;87.59;99944.59;105652;1250;71192;-65
2023/02/14 03:56:35;;;;;;;6.20;3.20;;;;;;;3.00;87.61;99948.25;105950;1251;72215;-66
2023/02/14 03:59:09;;;;;;;3.70;2.90;;;;;;;2.93;87.93;99940.52;105862;1254;59640;-68
2023/02/14 04:01:41;;;;;;;4.20;2.60;;;;;;;2.84;88.36;99942.08;105882;1251;60715;-64
2023/02/14 04:04:08;;;;;;;4.60;3.20;;;;;;;2.77;88.55;99941.86;105565;1251;70750;-65
2023/02/14 04:06:36;;;;;;;4.00;3.10;;;;;;;2.81;88.36;99933.58;105603;1256;70348;-65
2023/02/14 04:09:03;;;;;;;4.80;2.90;;;;;;;2.82;88.59;99931.55;105736;1252;73860;-66
2023/02/14 04:11:33;;;;;;;4.00;3.00;;;;;;;2.75;88.89;99931.73;105688;1256;61201;-63
2023/02/14 04:14:01;;;;;;;5.30;3.70;;;;;;;2.67;89.27;99932.50;105515;1251;59640;-67
2023/02/14 04:16:28;;;;;;;6.50;3.20;;;;;;;2.64;89.64;99924.30;105525;1256;73281;-65
2023/02/14 04:21:41;;;;;;;6.10;3.50;;;;;;;2.70;89.60;99923.19;105564;1256;73552;-64
2023/02/14 04:24:08;;;;;;;7.50;2.70;;;;;;;2.65;89.81;99914.13;105787;1250;61431;-65
2023/02/14 04:26:34;;;;;;;3.70;2.60;;;;;;;2.58;89.94;99924.38;105866;1250;60562;-65
2023/02/14 04:29:01;;;;;;;4.40;2.70;;;;;;;2.61;89.72;99928.95;106012;1253;73181;-65
2023/02/14 04:31:28;;;;;;;6.00;3.00;;;;;;;2.67;89.58;99934.79;105712;1250;71480;-66
2023/02/14 04:33:55;;;;;;;5.10;2.90;;;;;;;2.64;89.67;99948.64;105659;1254;72950;-64
2023/02/14 04:36:22;;;;;;;5.20;2.60;;;;;;;2.57;90.04;99958.43;105885;1250;59783;-66
2023/02/14 04:38:52;;;;;;;5.70;2.40;;;;;;;2.51;90.19;99959.66;105768;1250;60371;-64
2023/02/14 04:41:20;;;;;;;4.40;2.60;;;;;;;2.57;90.08;99952.80;105816;1253;74468;-62
2023/02/14 04:43:46;;;;;;;4.20;2.40;;;;;;;2.61;90.01;99960.20;105649;1251;71265;-65
2023/02/14 04:46:13;;;;;;;4.30;3.00;;;;;;;2.57;90.07;99968.54;105671;1256;71839;-63
2023/02/14 04:48:40;;;;;;;3.40;2.50;;;;;;;2.53;90.20;99973.88;105801;1250;60752;-64
2023/02/14 04:51:06;;;;;;;2.60;2.00;;;;;;;2.54;90.09;99977.33;105765;1250;61377;-64
2023/02/14 04:53:38;;;;;;;3.10;2.20;;;;;;;2.63;89.98;99983.17;105688;1253;72954;-65
2023/02/14 04:56:06;;;;;;;5.10;2.60;;;;;;;2.63;89.84;99987.50;105887;1251;71447;-67
2023/02/14 04:58:33;;;;;;;3.40;2.40;;;;;;;2.60;90.04;99989.34;105719;1251;73687;-65
2023/02/14 05:01:00;;;;;;;3.90;2.80;;;;;;;2.56;89.95;99996.90;105558;1250;61061;-66
2023/02/14 05:03:27;;;;;;;2.60;2.00;;;;;;;2.60;89.68;100000.67;105704;1250;60975;-65
2023/02/14 05:05:54;;;;;;;4.30;2.50;;;;;;;2.66;89.43;100008.11;108023;1251;72301;-66
2023/02/14 05:08:21;;;;;;;3.50;2.40;;;;;;;2.64;89.06;100004.03;105664;1251;70478;-66
2023/02/14 05:10:49;;;;;;;4.20;2.20;;;;;;;2.59;89.45;100005.60;105855;1251;72623;-64
2023/02/14 05:13:16;;;;;;;4.20;2.20;;;;;;;2.57;89.46;100006.46;105730;1251;60305;-64
2023/02/14 05:15:46;;;;;;;4.00;2.30;;;;;;;2.57;89.42;100002.30;105774;1250;60297;-65
2023/02/14 05:18:14;;;;;;;2.90;2.10;;;;;;;2.65;89.07;99999.27;105701;1253;72600;-65
2023/02/14 05:20:42;;;;;;;3.60;2.10;;;;;;;2.66;88.93;100005.48;105727;1250;70566;-66
2023/02/14 05:23:12;;;;;;;3.30;2.40;;;;;;;2.62;88.82;100005.79;105872;1250;73812;-62
2023/02/14 05:25:39;;;;;;;3.60;2.60;;;;;;;2.57;88.99;100001.25;105811;1251;59728;-63
2023/02/14 05:28:06;;;;;;;3.40;2.30;;;;;;;2.56;88.79;100003.91;105786;1251;61218;-64
2023/02/14 05:30:33;;;;;;;5.20;2.70;;;;;;;2.63;88.50;100000.83;105599;1257;72511;-66
2023/02/14 05:33:01;;;;;;;2.50;2.10;;;;;;;2.63;88.45;99996.95;105705;1251;71275;-66
2023/02/14 05:35:30;;;;;;;4.60;2.80;;;;;;;2.59;88.67;99997.23;105732;1251;72153;-68
2023/02/14 05:37:57;;;;;;;4.20;2.30;;;;;;;2.56;88.63;100000.27;105773;1250;59861;-67
2023/02/14 05:40:25;;;;;;;5.30;2.50;;;;;;;2.54;88.68;99999.18;105796;1250;59650;-68
2023/02/14 05:42:52;;;;;;;4.60;2.40;;;;;;;2.62;88.46;99995.82;105912;1250;72128;-69
2023/02/14 05:45:20;;;;;;;2.80;2.20;;;;;;;2.67;88.10;100004.21;105606;1251;70029;-69
2023/02/14 05:47:47;;;;;;;5.30;2.70;;;;;;;2.63;87.96;100006.45;105902;1253;72305;-68
2023/02/14 05:50:15;;;;;;;5.10;2.70;;;;;;;2.56;87.92;100010.73;105748;1250;59627;-68
2023/02/14 05:52:42;;;;;;;3.60;2.30;;;;;;;2.52;88.00;100006.27;105800;1250;59628;-69
2023/02/14 05:55:09;;;;;;;4.40;3.10;;;;;;;2.58;87.87;100012.02;105606;1252;73034;-65
2023/02/14 05:57:36;;;;;;;5.50;3.40;;;;;;;2.65;87.50;100012.38;105781;1251;69444;-67
2023/02/14 06:00:05;;;;;;;6.30;3.30;;;;;;;2.65;87.66;100014.44;105676;1251;71843;-66
2023/02/14 06:02:38;;;;;;;5.20;3.10;;;;;;;2.65;87.80;100016.27;105538;1251;60471;-69
2023/02/14 06:05:06;;;;;;;6.20;2.90;;;;;;;2.63;87.52;100013.60;105880;1250;61309;-69
2023/02/14 06:07:37;;;;;;;3.90;2.00;;;;;;;2.67;87.05;100014.99;105571;1257;73200;-69
2023/02/14 06:10:08;;;;;;;4.60;2.60;;;;;;;2.73;86.82;100017.58;105750;1250;71300;-67
2023/02/14 06:12:35;;;;;;;5.40;2.50;;;;;;;2.70;86.87;100020.95;105525;1250;72385;-69
2023/02/14 06:15:03;;;;;;;5.30;2.80;;;;;;;2.65;86.96;100022.54;105664;1250;60469;-69
2023/02/14 06:17:30;;;;;;;9.60;6.20;;;;;;;2.61;86.99;100024.93;105654;1251;60422;-68
2023/02/14 06:19:57;;;;;;;9.60;5.80;;;;;;;2.64;86.88;100027.11;105709;1250;73936;-68
2023/02/14 06:22:25;;;;;;;4.40;3.30;;;;;;;2.75;86.59;100031.94;105601;1251;69846;-69
2023/02/14 06:25:07;;;;;;;7.20;3.20;;;;;;;2.77;86.45;100019.53;105600;1251;73690;-68
2023/02/14 06:27:43;;;;;;;4.80;3.10;;;;;;;2.75;86.34;100023.86;105522;1251;60532;-67
2023/02/14 06:30:14;;;;;;;4.90;2.30;;;;;;;2.76;86.05;100033.63;105713;1250;60511;-70
2023/02/14 06:32:41;;;;;;;5.00;2.70;;;;;;;2.84;85.75;100031.14;105650;1251;72839;-71
2023/02/14 06:35:08;;;;;;;6.80;2.90;;;;;;;2.93;85.57;100035.52;105689;1253;69334;-68
2023/02/14 06:37:37;;;;;;;6.80;4.30;;;;;;;2.94;85.47;100036.86;105731;1250;72704;-68
2023/02/14 06:40:05;;;;;;;4.80;2.80;;;;;;;2.93;85.26;100035.50;105861;1250;60483;-67
2023/02/14 06:42:32;;;;;;;5.10;2.70;;;;;;;2.91;84.83;100038.14;105815;1256;60402;-69
2023/02/14 06:45:00;;;;;;;4.00;2.50;;;;;;;2.96;84.75;100038.33;105761;1251;74945;-68
2023/02/14 06:47:28;;;;;;;4.50;2.40;;;;;;;3.01;84.68;100036.51;105844;1251;69901;-68
2023/02/14 06:49:55;;;;;;;7.40;2.80;;;;;;;3.01;84.48;100033.23;105592;1256;72575;-70
2023/02/14 06:52:22;;;;;;;5.70;2.50;;;;;;;2.98;84.23;100030.65;105671;1250;60870;-70
2023/02/14 06:54:49;;;;;;;4.00;2.00;;;;;;;2.94;84.17;100031.80;105886;1250;60817;-70
2023/02/14 06:57:16;;;;;;;7.40;3.00;;;;;;;2.99;83.72;100026.39;105824;1250;75105;-70
2023/02/14 06:59:43;;;;;;;4.20;2.40;;;;;;;3.05;83.45;100027.51;106685;1250;70406;-70
2023/02/14 07:02:11;;;;;;;5.20;2.70;;;;;;;3.03;83.50;100027.67;106299;1250;72896;-70
2023/02/14 07:04:39;;;;;;;4.30;2.90;;;;;;;3.02;83.54;100032.81;106188;1250;60613;-67
2023/02/14 07:07:06;;;;;;;10.40;4.00;;;;;;;3.04;83.36;100038.63;106327;1253;60351;-68
2023/02/14 07:09:33;;;;;;;6.60;3.50;;;;;;;3.07;83.32;100032.46;106331;1254;73726;-70
2023/02/14 07:12:01;;;;;;;6.00;2.90;;;;;;;3.17;82.46;100030.64;106285;1250;68814;-68
2023/02/14 07:14:34;;;;;;;5.40;3.00;;;;;;;3.20;82.28;100035.48;105875;1258;70741;-67
2023/02/14 07:17:01;;;;;;;6.20;3.70;;;;;;;3.22;81.98;100036.55;106236;1254;60754;-66
2023/02/14 07:19:28;;;;;;;3.90;2.40;;;;;;;3.23;81.60;100034.39;106069;1250;60411;-67
2023/02/14 07:21:55;;;;;;;7.40;2.70;;;;;;;3.24;81.06;100036.05;106044;1254;73907;-67
2023/02/14 07:24:22;;;;;;;4.90;2.50;;;;;;;3.32;80.64;100031.80;106250;1254;71525;-66
2023/02/14 07:26:50;;;;;;;5.50;2.60;;;;;;;3.43;80.18;100028.36;106186;1254;71556;-64
2023/02/14 07:29:17;;;;;;;6.70;3.30;;;;;;;3.46;79.56;100029.92;106519;1251;60469;-68
2023/02/14 07:31:44;;;;;;;6.50;2.40;;;;;;;3.47;79.52;100031.02;107472;1250;61415;-66
2023/02/14 07:34:11;;;;;;;6.70;2.70;;;;;;;3.49;78.75;100026.32;107295;1250;74626;-66
2023/02/14 07:36:38;;;;;;;5.90;2.90;;;;;;;3.52;78.08;100032.05;106847;1253;69972;-66
2023/02/14 07:39:05;;;;;;;5.70;2.50;;;;;;;3.54;78.21;100027.00;106930;1254;71878;-66
2023/02/14 07:41:32;;;;;;;4.40;2.50;;;;;;;3.65;77.63;100023.20;107271;1251;61502;-65
2023/02/14 07:43:58;;;;;;;6.90;2.50;;;;;;;3.73;77.03;100019.98;107616;1250;60386;-66
2023/02/14 07:46:26;;;;;;;4.10;2.10;;;;;;;3.76;77.14;100024.48;107714;1254;72721;-66
2023/02/14 07:48:53;;;;;;;6.80;3.00;;;;;;;3.78;76.39;100029.58;107123;1250;71265;-67
2023/02/14 07:51:20;;;;;;;5.80;3.30;;;;;;;3.76;76.38;100041.31;107031;1254;72789;-68
2023/02/14 07:53:47;;;;;;;4.50;2.90;;;;;;;3.76;76.62;100037.81;106749;1250;60200;-66
2023/02/14 07:56:15;;;;;;;5.20;2.60;;;;;;;3.77;76.22;100033.13;106908;1250;61574;-65
2023/02/14 07:58:42;;;;;;;6.10;2.60;;;;;;;3.86;75.98;100033.56;106894;1257;73987;-65
2023/02/14 08:01:09;;;;;;;5.60;2.80;;;;;;;4.02;75.65;100033.48;107194;1250;69165;-67
2023/02/14 08:03:39;;;;;;;6.50;2.90;;;;;;;4.10;75.32;100021.80;107072;1251;72144;-68
2023/02/14 08:06:06;;;;;;;6.20;2.80;;;;;;;4.09;75.35;100024.02;107028;1253;60346;-67
2023/02/14 08:08:33;;;;;;;6.10;3.20;;;;;;;4.07;74.73;100023.65;106045;1250;60518;-69
2023/02/14 08:11:01;;;;;;;4.30;2.60;;;;;;;4.05;74.74;100028.35;105853;1254;75016;-68
2023/02/14 08:13:28;;;;;;;7.90;3.30;;;;;;;4.09;75.15;100026.69;105746;1250;71010;-66
2023/02/14 08:16:03;;;;;;;4.40;2.60;;;;;;;4.11;74.82;100018.27;105771;1254;72126;-67
2023/02/14 08:18:38;;;;;;;5.00;2.70;;;;;;;4.11;74.23;100020.50;105902;1252;61516;-66
2023/02/14 08:21:07;;;;;;;4.70;2.60;;;;;;;4.22;73.81;100029.70;105715;1251;60444;-68
2023/02/14 08:23:35;;;;;;;6.70;2.90;;;;;;;4.27;73.72;100033.67;105768;1254;74873;-66
2023/02/14 08:26:02;;;;;;;6.40;3.00;;;;;;;4.24;73.27;100031.11;105886;1250;70120;-68
2023/02/14 08:28:31;;;;;;;5.90;2.80;;;;;;;4.21;73.11;100027.50;105555;1258;73079;-68
2023/02/14 08:30:59;;;;;;;5.60;2.70;;;;;;;4.20;72.84;100028.08;105805;1251;60428;-67
2023/02/14 08:33:26;;;;;;;7.00;3.00;;;;;;;4.21;73.09;100035.73;105812;1250;61139;-71
2023/02/14 08:35:53;;;;;;;10.80;4.30;;;;;;;4.22;72.34;100033.91;108027;1250;72892;-83
2023/02/14 08:38:20;;;;;;;11.00;8.70;;;;;;;4.22;72.47;100030.16;108816;1250;70615;-79
2023/02/14 08:40:47;;;;;;;11.70;5.10;;;;;;;4.26;72.58;100026.40;107072;1253;73383;-80
2023/02/14 08:43:14;;;;;;;6.80;3.30;;;;;;;4.40;72.52;100033.52;106514;1250;62501;-79
2023/02/14 08:45:42;;;;;;;7.70;3.90;;;;;;;4.51;71.67;100033.02;107519;1250;61261;-81
2023/02/14 08:48:10;;;;;;;9.70;5.30;;;;;;;4.49;70.87;100039.32;108349;1254;72577;-81
2023/02/14 08:50:37;;;;;;;18.20;11.80;;;;;;;4.44;70.95;100042.52;106348;1253;71774;-79
2023/02/14 08:53:08;;;;;;;12.00;6.90;;;;;;;4.40;70.81;100041.06;105948;1259;73483;-74
2023/02/14 08:55:35;;;;;;;10.20;4.40;;;;;;;4.34;70.53;100035.08;106102;1250;60444;-70
2023/02/14 08:58:02;;;;;;;5.10;2.90;;;;;;;4.26;70.12;100038.63;105669;1250;60766;-71
2023/02/14 09:00:31;;;;;;;6.50;3.10;;;;;;;4.24;70.28;100041.43;106114;1254;74990;-70
2023/02/14 09:02:58;;;;;;;7.40;3.00;;;;;;;4.24;70.67;100044.65;105731;1251;71404;-70
2023/02/14 09:05:25;;;;;;;7.10;3.50;;;;;;;4.26;71.07;100046.91;106875;1251;72658;-73
2023/02/14 09:07:56;;;;;;;5.80;2.60;;;;;;;4.32;71.27;100046.77;107123;1251;60437;-78
2023/02/14 09:10:27;;;;;;;5.80;2.30;;;;;;;4.39;70.06;100050.77;107452;1251;60409;-81
2023/02/14 09:12:55;;;;;;;3.30;2.30;;;;;;;4.49;69.55;100047.53;106338;1250;73086;-80
2023/02/14 09:15:22;;;;;;;4.90;2.10;;;;;;;4.51;69.61;100044.74;107211;1256;69100;-77
2023/02/14 09:17:50;;;;;;;7.10;3.00;;;;;;;4.49;69.41;100039.08;107655;1256;73702;-81
2023/02/14 09:20:18;;;;;;;6.20;2.30;;;;;;;4.49;69.27;100044.92;107817;1250;60784;-80
2023/02/14 09:22:46;;;;;;;4.80;1.90;;;;;;;4.52;69.61;100048.66;107701;1250;60546;-81
2023/02/14 09:25:18;;;;;;;5.40;2.30;;;;;;;4.58;69.50;100058.45;106439;1250;72690;-80
2023/02/14 09:27:46;;;;;;;4.30;2.20;;;;;;;4.59;69.05;100055.90;106695;1250;71744;-79
2023/02/14 09:30:14;;;;;;;7.00;2.40;;;;;;;4.59;68.61;100057.07;107114;1253;72736;-76
2023/02/14 09:32:42;;;;;;;6.50;2.10;;;;;;;4.57;68.67;100044.85;108488;1253;60399;-80
2023/02/14 09:35:09;;;;;;;5.50;2.00;;;;;;;4.53;68.10;100049.55;108066;1252;60392;-79
2023/02/14 09:40:24;;;;;;;3.50;2.20;;;;;;;4.36;67.87;100046.95;106671;1250;71981;-76
2023/02/14 09:43:20;;;;;;;3.90;2.30;;;;;;;4.29;68.05;100042.98;106788;1250;72247;-79
2023/02/14 09:45:50;;;;;;;6.70;2.50;;;;;;;4.22;68.40;100037.77;107582;1250;60527;-76
2023/02/14 09:48:35;;;;;;;5.00;2.20;;;;;;;4.19;68.28;100036.40;106628;1250;60411;-74
2023/02/14 09:51:12;;;;;;;4.30;2.10;;;;;;;4.13;68.28;100041.79;106012;1250;75129;-73
2023/02/14 09:53:44;;;;;;;4.40;2.10;;;;;;;4.09;68.73;100034.19;105937;1252;71076;-73
2023/02/14 09:56:33;;;;;;;5.60;1.80;;;;;;;4.07;68.64;100033.27;105981;1256;73864;-75
2023/02/14 09:59:34;;;;;;;5.00;2.70;;;;;;;4.06;68.81;100030.02;105947;1253;60534;-73
2023/02/14 10:02:22;;;;;;;7.70;2.50;;;;;;;4.20;69.40;100033.21;105825;1258;61651;-72
2023/02/14 10:05:11;;;;;;;4.60;2.50;;;;;;;4.45;67.92;100030.63;105850;1253;74794;-75
2023/02/14 10:07:50;;;;;;;3.00;2.10;;;;;;;4.55;67.46;100030.79;106242;1255;71228;-73
2023/02/14 10:10:41;;;;;;;3.90;2.00;;;;;;;4.64;67.84;100031.99;106696;1258;72635;-74
2023/02/14 10:13:33;;;;;;;6.50;3.70;;;;;;;4.83;67.44;100033.60;106033;1250;60545;-74
2023/02/14 10:16:23;;;;;;;4.40;2.80;;;;;;;5.01;67.01;100038.08;106135;1256;61523;-73
2023/02/14 10:18:57;;;;;;;7.80;3.50;;;;;;;5.18;66.19;100034.63;105921;1256;74667;-75
2023/02/14 10:21:44;;;;;;;4.40;3.20;;;;;;;5.41;65.66;100023.75;106267;1254;69328;-74
2023/02/14 10:24:17;;;;;;;5.00;2.80;;;;;;;5.65;64.88;100029.48;106171;1256;72910;-75
2023/02/14 10:26:45;;;;;;;8.00;3.80;;;;;;;5.80;64.49;100026.14;106066;1250;60364;-74
2023/02/14 10:29:13;;;;;;;8.40;3.60;;;;;;;5.95;64.14;100015.16;106139;1253;60450;-72
2023/02/14 10:31:54;;;;;;;8.10;6.60;;;;;;;6.11;63.12;100015.11;106576;1250;73896;-74
2023/02/14 10:34:26;;;;;;;5.90;2.90;;;;;;;6.15;62.40;100011.56;106744;1250;71652;-73
2023/02/14 10:37:13;;;;;;;5.00;2.60;;;;;;;6.06;61.75;100015.64;106713;1250;73590;-76
2023/02/14 10:40:12;;;;;;;5.50;2.50;;;;;;;5.88;61.67;100022.95;106222;1254;61064;-75
2023/02/14 10:42:48;;;;;;;7.30;2.60;;;;;;;5.78;62.18;100016.66;105590;1253;60524;-76
2023/02/14 10:45:34;;;;;;;4.50;2.50;;;;;;;5.93;61.18;100013.42;106105;1254;74797;-76
2023/02/14 10:48:17;;;;;;;4.80;2.70;;;;;;;6.12;61.19;100015.52;106372;1253;70174;-77
2023/02/14 10:51:09;;;;;;;6.10;3.40;;;;;;;6.27;60.90;100011.20;106245;1250;72722;-76
2023/02/14 10:53:47;;;;;;;6.00;3.20;;;;;;;6.38;60.05;100009.19;106173;1254;60415;-75
2023/02/14 10:56:44;;;;;;;4.10;1.90;;;;;;;6.31;60.14;100009.67;106083;1250;60384;-76
2023/02/14 10:59:20;;;;;;;2.70;1.70;;;;;;;6.41;60.73;100007.56;106127;1256;74858;-75
2023/02/14 11:01:48;;;;;;;3.10;1.90;;;;;;;6.95;60.70;100012.93;106104;1256;70051;-76
2023/02/14 11:04:16;;;;;;;3.10;1.70;;;;;;;7.81;59.04;100005.64;106087;1253;72053;-76
2023/02/14 11:06:44;;;;;;;3.10;1.80;;;;;;;8.42;56.34;100004.06;105918;1253;60480;-75
2023/02/14 11:09:12;;;;;;;5.90;2.30;;;;;;;8.64;56.40;99998.99;108164;1250;59480;-73
2023/02/14 11:11:44;;;;;;;4.30;1.70;;;;;;;8.68;55.38;99993.83;108768;1251;73925;-73
2023/02/14 11:14:21;;;;;;;4.80;2.20;;;;;;;8.51;54.51;99994.39;107281;1256;70421;-74
2023/02/14 11:16:53;;;;;;;4.10;2.00;;;;;;;8.30;54.97;99997.45;106166;1250;72498;-75
2023/02/14 11:19:23;;;;;;;4.80;1.70;;;;;;;8.17;54.70;100001.49;106155;1254;60517;-75
2023/02/14 11:21:50;;;;;;;4.00;1.60;;;;;;;8.44;55.04;99992.86;106142;1253;60434;-74
2023/02/14 11:24:28;;;;;;;4.80;1.70;;;;;;;8.70;54.48;99996.11;106297;1259;73238;-75
2023/02/14 11:26:58;;;;;;;3.50;1.60;;;;;;;8.89;53.29;99993.61;106368;1250;70146;-73
2023/02/14 11:29:27;;;;;;;6.30;2.20;;;;;;;8.90;52.25;100000.88;105983;1256;71739;-71
2023/02/14 11:31:54;;;;;;;3.50;2.20;;;;;;;8.73;52.10;100001.33;105727;1258;60463;-74
2023/02/14 11:34:31;;;;;;;6.30;4.50;;;;;;;8.47;52.17;99998.14;106633;1253;60571;-75
2023/02/14 11:36:59;;;;;;;9.10;6.10;;;;;;;8.21;52.67;100000.11;106506;1250;75122;-74
2023/02/14 11:39:31;;;;;;;11.20;7.50;;;;;;;7.95;52.75;99999.33;107015;1253;69481;-77
2023/02/14 11:42:03;;;;;;;9.00;5.10;;;;;;;7.71;53.71;100001.73;106180;1253;71938;-79
2023/02/14 11:44:35;;;;;;;6.90;4.00;;;;;;;7.69;54.10;99999.50;106049;1250;60619;-72
2023/02/14 11:47:26;;;;;;;7.90;3.20;;;;;;;7.77;54.22;99998.75;106061;1255;60424;-74
2023/02/14 11:49:57;;;;;;;3.70;2.10;;;;;;;7.73;53.17;100001.77;106233;1250;73615;-75
2023/02/14 11:52:25;;;;;;;4.30;2.40;;;;;;;7.52;53.25;99993.16;106195;1256;71772;-74
2023/02/14 11:54:52;;;;;;;5.70;3.30;;;;;;;7.28;53.67;100001.89;106303;1251;73672;-75
2023/02/14 11:57:25;;;;;;;4.00;2.70;;;;;;;7.05;53.44;100004.34;106124;1250;60550;-74
2023/02/14 11:59:53;;;;;;;2.80;1.90;;;;;;;6.77;54.09;100004.52;106488;1251;60536;-74
2023/02/14 12:02:24;;;;;;;4.90;1.80;;;;;;;6.60;54.39;100002.70;106178;1250;74248;-76
2023/02/14 12:04:53;;;;;;;3.90;1.60;;;;;;;6.46;54.26;100007.48;106128;1255;70421;-77
2023/02/14 12:07:29;;;;;;;5.10;1.80;;;;;;;6.32;54.38;100005.14;106718;1250;72750;-75
2023/02/14 12:10:17;;;;;;;4.80;1.60;;;;;;;6.22;54.67;100003.26;106681;1250;60508;-72